METAR de aeropuertos de Murcia y cercanos

 

LEAL - Alicante
Actualización: 17/08/2017 11:30
Few Clouds
Few Clouds
 Viento del varies
Viento: varies 7 km/h
Temperatura: 30°C
Heat Index: 33°C
Rocío: 22°C
Humedad: 62%
Barómetro: 1019 hPa
Nubosidad: Few Clouds
Visibilidad: 10 km
Cloud details: Few Clouds 305 m
2017/08/17 09:30 LEAL 170930Z VRB04KT 9999 FEW010 30/22 Q1019 NOSIG
LEAB - Albacete
Actualización: 17/08/2017 11:00
Few Clouds
Few Clouds
 Viento del SSE
Viento: SSE 15 km/h
Temperatura: 25°C
Rocío: 20°C
Humedad: 74%
Barómetro: 1022 hPa
Nubosidad: Few Clouds
Visibilidad: 9 km
Cloud details: Few Clouds 427 m
2017/08/17 09:00 LEAB 170900Z 15008KT 120V190 9000 FEW014 25/20 Q1022 NOSIG
LEAM - Almería
Actualización: 17/08/2017 11:30
Few Clouds
Few Clouds
 Viento del ESE
Viento: ESE 19 km/h
Temperatura: 31°C
Heat Index: 35°C
Rocío: 22°C
Humedad: 59%
Barómetro: 1018 hPa
Nubosidad: Few Clouds
Visibilidad: 10 km
Cloud details: Few Clouds 610 m
2017/08/17 09:30 LEAM 170930Z 12010KT 080V160 9999 FEW020 31/22 Q1018
 
LERI - Murcia/Alcantarilla
Actualización: 17/08/2017 11:00
Few Clouds
Few Clouds
 Viento del SSO
Viento: SSO 4 km/h
Temperatura: 29°C
Heat Index: 31°C
Rocío: 21°C
Humedad: 62%
Barómetro: 1019 hPa
Nubosidad: Few Clouds
Visibilidad: 10 km
Cloud details: Few Clouds 762 m
2017/08/17 09:00 LERI 170900Z 21002KT 9999 FEW025 29/21 Q1019 NOSIG
LELC - Murcia/San Javier
Actualización: 17/08/2017 11:00
Partly Cloudy
Partly Cloudy
 Viento del varies
Viento: varies 4 km/h
Temperatura: 28°C
Heat Index: 31°C
Rocío: 23°C
Humedad: 74%
Barómetro: 1019 hPa
Nubosidad: Partly Cloudy
Visibilidad: 10 km
Cloud details: Partly Cloudy 366 m
2017/08/17 09:00 LELC 170900Z VRB02KT 9999 SCT012 28/23 Q1019 NOSIG

La estación de MeteoMurcia.com, publica sus datos en los siguientes proyectos:

Meteoclimatic www.awekas.at

W3Counter
Web Analytics